Baileyville, IL

8:55 PM CST on November 23, 2014 (GMT -0600)
Albertus | Change Station
CLOSE
Current Station
Airport
Location: Freeport,
Elevation: 860 ft
Nearby Weather Stations
Active Advisory: Winter Weather Advisory

Elev 860 ft 42.25 °N, 89.58 °W | Updated 20 minutes ago

Mostly Cloudy
Mostly Cloudy
46 °F
Feels Like 44 °F
N
5
Wind Variable Wind from East

Today
High -- | Low -- °F
--% Chance of Precip.
Yesterday
High -- | Low -- °F
Precip. -- in
6:58 AM 4:30 PM
Waxing Crescent, 3% visible
Pressure 29.24 in
Visibility 1.0 miles
Clouds Overcast 200 ft
Windchill 44 °F
Dew Point 46 °F
Humidity 99%
Rainfall 1.06 in
Snow Depth Not available.
UV 0 out of 12
Pollen .10 out of 12
Air Quality Not available.
Flu Activity Not available.
METAR KFEP 240235Z AUTO 10004KT 1SM DZ OVC002 08/08 A2924 RMK AO2 P0001 T00780076

More Conditions Fewer Conditions

Pressure 29.24 in
Visibility 1.0 miles
Clouds Overcast 200 ft
Windchill 44 °F
Dew Point 46 °F
Humidity 99%
Rainfall 1.06 in
Snow Depth Not available.
UV 0 out of 12
Pollen .10 out of 12
Air Quality Not available.
Flu Activity Not available.
METAR KFEP 240235Z AUTO 10004KT 1SM DZ OVC002 08/08 A2924 RMK AO2 P0001 T00780076

More Conditions Fewer Conditions

10-Day Weather Forecast

Almanac

Astronomy

Nov. 23, 2014 Rise Set
Actual Time
Civil Twilight
Nautical Twilight
Astronomical Twilight
Moon
Length of Visible Light
Length of Day
Tomorrow will be .
, % of the Moon is Illuminated

Today's Extremes

State Highs State Lows

Community

WunderPhotos

Upload Photos

1,773,257 photos uploaded!

WunderBlogs® & News

Nearby

Air Quality

  Air Quality AQ Index Pollutant
Not available.

Snow Depth

Station Depth Elevation

Earthquake Activity

City Distance Mag. Time & Date
Minimum magnitude displayed is 2.5.

Coastal Water Temperatures

Place Temperature

Nearby Weather Stations